Marion, Montana
Current Conditions -  °F | °C
As of 10:55 AM on Saturday 22 Nov 2014 (Local Time) from KGPI Reporting Station
Overcast Overcast  
Wind Chill: 31°   Ceiling: 6000
Heat Index: 39°   Visibility: 10mi
Dew Point: 30°   Wind: 15mph
Humidity: 70%   Direction: 230°SW
Pressure: 29.47"   Gusts: NA
Location:  48.11°N, 114.66°W
Report Text: KGPI 221755Z 23013KT 10SM FEW043 OVC060 04/M01 A2947 RMK AO2 SLP997 60009 T00391011 10044 20028 53025
Loading
Personal Weather Stations






























Interactive Weather Map New forecast layout! Learn more

10-Day Weather Forecast

Advertisements
Track Severe Weather on mobile